Time;durP1;ratioP1;P1;durP2;ratioP2;P2;SDS_P1;SDS_P2;PMS_P1;PMS_P2;Temp;Humidity;BMP_temperature;BMP_pressure;BME280_temperature;BME280_humidity;BME280_pressure;Samples;Min_cycle;Max_cycle;Signal;HPM_P1;HPM_P2
2022/05/17 00:01:34;;;;;;;8.65;6.20;;;;;;;21.38;55.65;100322.22;4975698;28;20047;-81
2022/05/17 00:04:01;;;;;;;7.50;6.03;;;;;;;21.36;55.78;100325.13;4984405;28;20043;-80
2022/05/17 00:06:29;;;;;;;10.50;6.10;;;;;;;21.35;55.85;100322.63;4982860;28;20121;-79
2022/05/17 00:08:58;;;;;;;9.02;6.40;;;;;;;21.33;55.93;100321.97;4969225;28;20085;-79
2022/05/17 00:11:25;;;;;;;8.68;6.40;;;;;;;21.31;55.97;100324.84;4972429;28;20129;-79
2022/05/17 00:13:52;;;;;;;8.90;6.20;;;;;;;21.29;55.95;100318.81;4967498;28;20128;-77
2022/05/17 00:16:19;;;;;;;7.82;5.38;;;;;;;21.24;55.97;100319.41;4955900;28;20046;-77
2022/05/17 00:18:46;;;;;;;11.65;6.25;;;;;;;21.21;55.92;100324.34;4982791;28;20131;-83
2022/05/17 00:21:13;;;;;;;10.25;5.97;;;;;;;21.16;56.12;100321.38;4964776;28;20170;-76
2022/05/17 00:23:41;;;;;;;12.65;6.00;;;;;;;21.11;56.08;100326.53;4984060;28;20108;-77
2022/05/17 00:26:08;;;;;;;8.57;6.15;;;;;;;21.06;56.17;100324.41;4972570;28;20516;-77
2022/05/17 00:28:36;;;;;;;10.57;6.45;;;;;;;21.02;56.17;100332.06;4966152;28;20097;-77
2022/05/17 00:31:06;;;;;;;9.02;5.63;;;;;;;20.97;56.38;100322.88;4982026;28;20048;-79
2022/05/17 00:33:33;;;;;;;8.40;6.40;;;;;;;20.94;56.45;100331.34;4976323;28;22004;-79
2022/05/17 00:36:02;;;;;;;11.02;6.20;;;;;;;20.90;56.36;100325.50;4981649;28;20061;-79
2022/05/17 00:38:29;;;;;;;9.63;5.40;;;;;;;20.87;56.45;100327.75;4964044;28;20042;-77
2022/05/17 00:40:56;;;;;;;8.75;5.35;;;;;;;20.82;56.42;100328.31;4972102;28;20094;-77
2022/05/17 00:43:29;;;;;;;8.75;5.50;;;;;;;20.77;56.48;100328.88;4970120;28;20073;-83
2022/05/17 00:45:59;;;;;;;7.75;5.93;;;;;;;20.76;56.60;100332.63;4971044;28;20051;-82
2022/05/17 00:48:27;;;;;;;8.32;5.90;;;;;;;20.75;56.51;100330.94;4977701;28;20058;-80
2022/05/17 00:50:54;;;;;;;8.27;5.47;;;;;;;20.74;56.46;100328.44;4982214;28;20073;-81
2022/05/17 00:53:27;;;;;;;10.60;6.05;;;;;;;20.73;56.67;100329.44;4966714;28;20058;-80
2022/05/17 00:55:57;;;;;;;9.23;6.32;;;;;;;20.71;56.72;100326.94;4974761;28;20051;-80
2022/05/17 00:58:48;;;;;;;8.77;5.65;;;;;;;20.71;57.26;100326.94;4971641;28;20050;-79
2022/05/17 01:01:28;;;;;;;7.18;5.22;;;;;;;20.69;56.94;100328.16;4906361;28;20053;-79
2022/05/17 01:03:59;;;;;;;8.00;6.28;;;;;;;20.68;56.51;100329.19;4977215;28;20046;-79
2022/05/17 01:06:29;;;;;;;12.85;6.20;;;;;;;20.63;56.76;100329.75;4976043;28;20537;-79
2022/05/17 01:08:56;;;;;;;10.80;5.55;;;;;;;20.62;56.57;100324.56;4977488;28;20101;-83
2022/05/17 01:11:23;;;;;;;9.05;5.50;;;;;;;20.58;56.99;100327.63;4972944;28;20053;-82
2022/05/17 01:16:35;;;;;;;11.30;5.95;;;;;;;20.52;56.61;100339.13;4978508;28;20054;-83
2022/05/17 01:19:04;;;;;;;9.73;6.32;;;;;;;20.51;56.85;100325.84;4989887;28;20057;-82
2022/05/17 01:21:32;;;;;;;8.43;5.88;;;;;;;20.45;56.60;100326.59;4966744;28;20134;-83
2022/05/17 01:23:58;;;;;;;12.95;6.30;;;;;;;20.44;56.64;100333.00;4972351;28;20064;-82
2022/05/17 01:26:28;;;;;;;8.27;6.47;;;;;;;20.37;56.73;100331.06;4988672;28;20527;-82
2022/05/17 01:28:56;;;;;;;10.30;6.38;;;;;;;20.34;56.92;100328.72;4972782;28;20047;-80
2022/05/17 01:31:22;;;;;;;11.63;6.15;;;;;;;20.31;56.85;100331.81;4959525;28;20042;-80
2022/05/17 01:33:49;;;;;;;7.55;5.55;;;;;;;20.27;56.91;100332.38;4978310;28;20041;-81
2022/05/17 01:36:21;;;;;;;9.60;5.70;;;;;;;20.27;56.91;100332.38;4974979;28;20126;-82
2022/05/17 01:38:50;;;;;;;9.82;5.88;;;;;;;20.25;56.76;100335.25;4976769;28;20054;-82
2022/05/17 01:41:21;;;;;;;9.55;6.43;;;;;;;20.21;57.14;100339.34;4975841;28;20062;-83
2022/05/17 01:43:50;;;;;;;6.80;5.68;;;;;;;20.19;57.19;100340.56;4956580;28;20060;-82
2022/05/17 01:46:19;;;;;;;8.60;6.28;;;;;;;20.22;57.18;100350.97;4977504;28;20055;-79
2022/05/17 01:48:46;;;;;;;9.68;6.50;;;;;;;20.21;57.10;100350.13;4950525;28;20047;-77
2022/05/17 01:51:13;;;;;;;11.35;6.57;;;;;;;20.21;57.12;100349.31;4980226;28;20053;-77
2022/05/17 01:53:41;;;;;;;10.70;6.47;;;;;;;20.19;57.09;100352.16;4975428;28;20065;-77
2022/05/17 01:56:09;;;;;;;11.88;6.38;;;;;;;20.16;57.18;100353.38;4979558;28;20479;-77
2022/05/17 01:58:36;;;;;;;8.50;6.60;;;;;;;20.14;57.07;100352.72;4978508;28;20050;-79
2022/05/17 02:01:04;;;;;;;10.38;6.53;;;;;;;20.13;57.01;100353.75;4986185;28;20051;-79
2022/05/17 02:03:33;;;;;;;8.93;6.65;;;;;;;20.11;56.67;100345.00;4911122;28;20072;-79
2022/05/17 02:06:07;;;;;;;9.70;5.93;;;;;;;20.11;56.91;100349.56;4861966;29;20105;-79
2022/05/17 02:08:34;;;;;;;8.27;5.82;;;;;;;20.10;56.90;100358.69;4893500;29;20103;-79
2022/05/17 02:11:01;;;;;;;10.45;6.70;;;;;;;20.06;57.05;100352.00;4898820;29;20128;-79
2022/05/17 02:13:28;;;;;;;10.32;6.32;;;;;;;20.02;57.01;100346.13;4887875;29;20044;-79
2022/05/17 02:15:55;;;;;;;8.70;5.95;;;;;;;19.98;56.98;100344.81;4879181;29;20162;-79
2022/05/17 02:18:22;;;;;;;10.77;7.00;;;;;;;19.95;57.24;100347.91;4888510;29;20048;-79
2022/05/17 02:20:49;;;;;;;11.75;6.32;;;;;;;19.93;57.03;100350.75;4886060;29;20156;-80
2022/05/17 02:23:16;;;;;;;10.30;6.35;;;;;;;19.91;56.98;100351.97;4897103;29;20535;-80
2022/05/17 02:25:42;;;;;;;11.52;5.82;;;;;;;19.88;57.25;100353.16;4899734;29;20076;-80
2022/05/17 02:28:10;;;;;;;8.50;6.30;;;;;;;19.86;57.20;100352.50;4871830;29;20105;-80
2022/05/17 02:30:39;;;;;;;9.85;6.55;;;;;;;19.82;57.31;100353.91;4890019;28;20043;-81
2022/05/17 02:33:06;;;;;;;8.40;6.25;;;;;;;19.80;57.25;100360.50;4950773;28;20447;-79
2022/05/17 02:35:33;;;;;;;10.18;6.60;;;;;;;19.77;57.21;100353.63;4958017;28;20062;-79
2022/05/17 02:38:00;;;;;;;11.68;6.07;;;;;;;19.75;57.10;100358.34;4948469;28;20043;-79
2022/05/17 02:40:27;;;;;;;10.60;6.13;;;;;;;19.73;57.18;100365.78;4941644;28;20047;-79
2022/05/17 02:42:54;;;;;;;10.65;6.47;;;;;;;19.72;57.25;100362.25;4926385;28;20049;-79
2022/05/17 02:45:21;;;;;;;9.23;6.80;;;;;;;19.70;57.01;100358.91;4921701;28;20054;-79
2022/05/17 02:47:48;;;;;;;10.02;7.07;;;;;;;19.69;57.05;100367.16;4929712;28;20062;-79
2022/05/17 02:50:15;;;;;;;13.63;7.10;;;;;;;19.67;57.04;100369.22;4950732;28;20055;-79
2022/05/17 02:52:42;;;;;;;11.30;6.25;;;;;;;19.65;57.22;100368.53;4961066;28;20518;-79
2022/05/17 02:55:09;;;;;;;12.07;6.20;;;;;;;19.62;56.88;100367.03;4958534;28;20089;-79
2022/05/17 02:57:37;;;;;;;11.25;6.70;;;;;;;19.61;57.26;100375.28;4961227;28;20081;-83
2022/05/17 03:00:06;;;;;;;9.68;6.90;;;;;;;19.58;57.45;100372.97;4949103;28;20178;-83
2022/05/17 03:02:33;;;;;;;9.55;6.63;;;;;;;19.55;57.34;100371.47;4958422;28;20475;-80
2022/05/17 03:05:00;;;;;;;9.38;6.35;;;;;;;19.56;57.12;100375.81;4980539;28;20093;-80
2022/05/17 03:07:27;;;;;;;9.32;6.63;;;;;;;19.51;57.25;100375.53;4971514;28;20178;-80
2022/05/17 03:09:54;;;;;;;11.70;6.95;;;;;;;19.47;57.29;100369.69;4978471;28;20056;-82
2022/05/17 03:12:20;;;;;;;11.15;6.60;;;;;;;19.44;57.41;100370.03;4961670;28;20045;-82
2022/05/17 03:14:47;;;;;;;8.90;6.20;;;;;;;19.43;57.37;100372.91;4977052;28;20410;-82
2022/05/17 03:17:15;;;;;;;9.07;5.85;;;;;;;19.41;57.52;100373.09;4956007;28;20049;-76
2022/05/17 03:19:42;;;;;;;11.85;6.72;;;;;;;19.42;57.27;100382.00;4978107;28;20045;-76
2022/05/17 03:22:10;;;;;;;11.18;6.72;;;;;;;19.40;57.31;100378.66;4962904;28;20053;-76
2022/05/17 03:24:38;;;;;;;9.77;6.80;;;;;;;19.36;57.58;100383.56;4964930;28;20458;-76
2022/05/17 03:27:24;;;;;;;12.02;7.35;;;;;;;19.35;57.56;100389.13;4899321;28;20129;-82
2022/05/17 03:29:51;;;;;;;10.30;6.72;;;;;;;19.31;57.50;100377.88;4959694;28;20056;-83
2022/05/17 03:32:19;;;;;;;11.80;8.07;;;;;;;19.27;57.79;100388.16;4994586;28;20042;-82
2022/05/17 03:34:46;;;;;;;10.13;6.38;;;;;;;19.22;57.76;100390.56;4977421;28;20046;-82
2022/05/17 03:37:13;;;;;;;9.80;6.05;;;;;;;19.21;57.46;100391.59;4975988;28;20109;-82
2022/05/17 03:39:40;;;;;;;11.25;6.80;;;;;;;19.17;57.83;100390.25;4958261;28;20072;-82
2022/05/17 03:42:09;;;;;;;10.30;6.45;;;;;;;19.13;57.63;100388.91;4963726;28;20212;-82
2022/05/17 03:44:37;;;;;;;10.38;6.40;;;;;;;19.10;57.69;100394.66;4969922;28;20054;-82
2022/05/17 03:47:05;;;;;;;9.60;6.40;;;;;;;19.08;57.86;100402.06;4960004;28;20042;-82
2022/05/17 03:49:33;;;;;;;8.98;6.32;;;;;;;19.07;57.95;100395.84;4965015;28;20054;-82
2022/05/17 03:52:01;;;;;;;11.52;6.35;;;;;;;19.06;58.24;100396.06;4981726;28;20102;-82
2022/05/17 03:54:28;;;;;;;8.10;6.57;;;;;;;19.05;58.04;100397.06;4978466;28;20046;-82
2022/05/17 03:56:55;;;;;;;8.73;6.50;;;;;;;19.04;58.01;100396.22;4993208;28;20663;-82
2022/05/17 03:59:21;;;;;;;11.07;7.03;;;;;;;19.02;57.89;100403.63;4980266;28;20552;-82
2022/05/17 04:01:48;;;;;;;9.85;6.93;;;;;;;19.01;58.20;100403.81;4969393;28;20052;-82
2022/05/17 04:04:15;;;;;;;11.30;8.48;;;;;;;18.99;58.30;100403.16;4972624;28;20386;-82
2022/05/17 04:06:42;;;;;;;12.50;7.65;;;;;;;18.95;58.18;100402.66;4978301;28;20053;-82
2022/05/17 04:09:10;;;;;;;12.70;6.90;;;;;;;18.95;58.30;100404.50;4979819;28;20058;-82
2022/05/17 04:11:37;;;;;;;11.18;6.95;;;;;;;18.95;58.33;100409.88;4971307;28;20049;-82
2022/05/17 04:14:04;;;;;;;10.20;6.30;;;;;;;18.98;58.21;100417.59;4987531;28;20047;-82
2022/05/17 04:16:33;;;;;;;11.15;6.60;;;;;;;18.93;58.16;100415.47;4964222;28;20051;-83
2022/05/17 04:19:01;;;;;;;9.13;6.30;;;;;;;18.93;58.00;100420.00;4951078;28;20135;-84
2022/05/17 04:21:32;;;;;;;10.43;7.47;;;;;;;18.93;58.26;100420.84;4962040;28;20061;-83
2022/05/17 04:23:59;;;;;;;8.50;6.45;;;;;;;18.93;57.91;100425.38;4999221;28;20042;-83
2022/05/17 04:26:27;;;;;;;8.07;6.80;;;;;;;18.90;58.03;100429.25;4988966;28;20047;-82
2022/05/17 04:28:55;;;;;;;9.95;6.82;;;;;;;18.87;57.93;100426.91;4968522;28;20146;-81
2022/05/17 04:31:23;;;;;;;12.68;6.85;;;;;;;18.83;58.05;100434.50;4953800;28;20046;-76
2022/05/17 04:33:53;;;;;;;9.52;6.47;;;;;;;18.80;58.02;100424.09;4979620;28;20376;-77
2022/05/17 04:36:20;;;;;;;11.50;7.78;;;;;;;18.76;58.02;100430.84;4955155;28;20062;-75
2022/05/17 04:38:47;;;;;;;10.63;7.20;;;;;;;18.77;57.97;100431.66;4978289;28;20490;-81
2022/05/17 04:41:15;;;;;;;9.90;7.40;;;;;;;18.77;58.10;100431.66;4980062;28;20566;-83
2022/05/17 04:43:47;;;;;;;12.10;7.32;;;;;;;18.77;58.30;100429.81;4990133;28;20091;-84
2022/05/17 04:46:15;;;;;;;13.00;7.35;;;;;;;18.78;58.48;100438.75;4977245;28;20105;-86
2022/05/17 04:48:45;;;;;;;11.30;7.70;;;;;;;18.80;58.27;100447.47;4939277;28;20514;-82
2022/05/17 04:51:14;;;;;;;13.98;7.93;;;;;;;18.83;58.06;100445.28;4964368;28;20046;-81
2022/05/17 04:53:41;;;;;;;11.32;7.97;;;;;;;18.86;58.25;100444.91;4968934;28;20051;-85
2022/05/17 04:56:11;;;;;;;10.65;8.10;;;;;;;18.91;58.08;100457.03;4978840;28;20145;-80
2022/05/17 04:58:40;;;;;;;13.32;8.30;;;;;;;18.93;58.00;100454.97;4962745;28;20061;-80
2022/05/17 05:01:06;;;;;;;12.82;8.60;;;;;;;18.96;58.22;100460.03;4983529;28;20053;-81
2022/05/17 05:03:33;;;;;;;12.88;8.25;;;;;;;18.97;58.21;100450.94;4964782;28;20046;-75
2022/05/17 05:06:00;;;;;;;16.38;8.45;;;;;;;19.00;57.96;100453.25;4979815;28;20052;-75
2022/05/17 05:08:27;;;;;;;12.88;9.15;;;;;;;19.02;58.14;100451.25;4964360;28;20053;-74
2022/05/17 05:10:55;;;;;;;13.65;9.40;;;;;;;19.07;58.10;100446.16;4973920;28;20054;-74
2022/05/17 05:13:23;;;;;;;12.52;8.60;;;;;;;19.10;58.17;100448.50;4985669;28;20053;-77
2022/05/17 05:15:51;;;;;;;11.82;8.45;;;;;;;19.14;58.14;100451.69;4971201;28;20146;-79
2022/05/17 05:18:18;;;;;;;14.57;8.55;;;;;;;19.19;58.62;100452.84;4961597;28;20627;-76
2022/05/17 05:20:45;;;;;;;16.95;9.15;;;;;;;19.23;58.47;100448.78;4984336;28;20051;-77
2022/05/17 05:23:11;;;;;;;14.50;10.05;;;;;;;19.29;58.69;100453.47;4967011;28;20054;-77
2022/05/17 05:25:39;;;;;;;16.25;8.98;;;;;;;19.30;58.59;100460.50;4980164;28;20070;-79
2022/05/17 05:28:09;;;;;;;14.35;9.55;;;;;;;19.29;58.89;100461.53;4961831;28;20510;-84
2022/05/17 05:30:36;;;;;;;16.33;8.88;;;;;;;19.29;58.58;100458.84;4954227;28;20150;-82
2022/05/17 05:33:04;;;;;;;18.65;10.13;;;;;;;19.32;58.98;100465.72;4980949;28;20413;-80
2022/05/17 05:35:32;;;;;;;14.45;9.40;;;;;;;19.35;59.01;100467.22;4983404;28;20046;-82
2022/05/17 05:41:42;;;;;;;17.52;10.32;;;;;;;19.41;59.40;100461.97;4922715;28;20047;-78
2022/05/17 05:44:10;;;;;;;15.90;10.38;;;;;;;19.42;59.43;100465.50;4928251;28;20106;-76
2022/05/17 05:46:37;;;;;;;22.23;9.95;;;;;;;19.50;59.88;100466.28;4939174;28;20062;-74
2022/05/17 05:49:04;;;;;;;15.10;9.98;;;;;;;19.56;59.62;100463.88;4955586;28;20051;-74
2022/05/17 05:51:31;;;;;;;16.70;9.68;;;;;;;19.61;59.93;100466.88;4957029;28;20473;-76
2022/05/17 05:53:58;;;;;;;12.48;8.65;;;;;;;19.65;59.60;100462.81;4943544;28;20093;-76
2022/05/17 05:56:25;;;;;;;18.25;9.68;;;;;;;19.65;59.42;100466.34;4978165;28;20509;-77
2022/05/17 05:58:52;;;;;;;15.98;10.40;;;;;;;19.64;59.63;100470.06;4958862;28;20047;-76
2022/05/17 06:01:18;;;;;;;15.52;9.70;;;;;;;19.66;59.84;100469.88;4976697;28;20065;-78
2022/05/17 06:03:46;;;;;;;15.32;9.75;;;;;;;19.66;59.95;100473.41;4971809;28;20046;-82
2022/05/17 06:06:14;;;;;;;19.83;9.82;;;;;;;19.68;60.04;100471.41;4979397;28;20054;-81
2022/05/17 06:08:41;;;;;;;14.50;9.73;;;;;;;19.70;60.50;100468.53;4963389;28;20056;-82
2022/05/17 06:11:08;;;;;;;15.30;10.02;;;;;;;19.78;60.35;100470.34;4966659;28;20050;-85
2022/05/17 06:13:34;;;;;;;16.65;10.57;;;;;;;19.80;60.59;100474.53;4991900;28;20050;-82
2022/05/17 06:16:02;;;;;;;16.50;10.13;;;;;;;19.87;60.37;100480.00;4965488;28;20066;-79
2022/05/17 06:18:30;;;;;;;16.52;10.73;;;;;;;19.92;60.33;100466.84;4979077;28;20101;-79
2022/05/17 06:21:00;;;;;;;17.15;10.40;;;;;;;19.94;60.81;100465.63;4967743;28;20037;-78
2022/05/17 06:23:27;;;;;;;14.85;10.32;;;;;;;20.04;61.21;100472.66;4960630;28;20448;-79
2022/05/17 06:25:53;;;;;;;15.55;10.35;;;;;;;20.10;61.13;100467.38;4978087;28;20041;-78
2022/05/17 06:28:20;;;;;;;19.25;10.30;;;;;;;20.10;61.40;100472.75;4977792;28;20054;-79
2022/05/17 06:30:48;;;;;;;16.48;10.27;;;;;;;20.14;61.37;100474.06;4971149;28;20070;-81
2022/05/17 06:33:15;;;;;;;14.30;9.63;;;;;;;20.26;61.14;100476.34;4959793;28;20045;-80
2022/05/17 06:35:43;;;;;;;14.30;10.45;;;;;;;20.29;61.24;100475.97;4956259;28;20558;-81
2022/05/17 06:38:12;;;;;;;22.65;11.50;;;;;;;20.32;60.92;100471.03;4951761;28;20049;-81
2022/05/17 06:40:38;;;;;;;15.35;11.13;;;;;;;20.33;60.80;100480.81;4976010;28;20054;-79
2022/05/17 06:43:05;;;;;;;15.80;10.45;;;;;;;20.35;61.14;100477.91;4946331;28;21001;-79
2022/05/17 06:45:33;;;;;;;15.38;10.60;;;;;;;20.36;61.33;100479.59;4944884;28;20043;-77
2022/05/17 06:48:01;;;;;;;17.80;10.45;;;;;;;20.41;61.29;100479.88;4963999;28;20044;-75
2022/05/17 06:50:29;;;;;;;16.80;10.68;;;;;;;20.44;61.68;100479.50;4969132;28;21672;-74
2022/05/17 06:52:55;;;;;;;15.88;10.23;;;;;;;20.47;61.52;100479.13;4977960;28;20077;-76
2022/05/17 06:55:22;;;;;;;16.15;9.80;;;;;;;20.48;61.58;100475.44;4966522;28;20042;-75
2022/05/17 06:57:50;;;;;;;17.52;10.00;;;;;;;20.50;61.54;100475.22;4971067;28;20510;-76
2022/05/17 07:00:20;;;;;;;18.45;10.43;;;;;;;20.56;61.04;100483.47;4969995;28;20593;-76
2022/05/17 07:02:49;;;;;;;16.55;10.70;;;;;;;20.50;61.49;100480.63;4968807;28;20050;-75
2022/05/17 07:05:16;;;;;;;16.85;9.98;;;;;;;20.52;61.97;100482.13;4957044;28;20046;-78
2022/05/17 07:07:43;;;;;;;14.27;9.48;;;;;;;20.53;62.18;100486.50;4968091;28;20434;-78
2022/05/17 07:13:08;;;;;;;21.00;10.60;;;;;;;20.65;62.37;100477.97;4958431;28;20030;-74
2022/05/17 07:15:36;;;;;;;19.15;10.85;;;;;;;20.72;62.21;100484.31;4951801;28;20498;-75
2022/05/17 07:18:04;;;;;;;16.83;10.73;;;;;;;20.72;62.52;100482.44;4967914;28;20061;-78
2022/05/17 07:20:32;;;;;;;17.00;9.85;;;;;;;20.78;62.09;100489.78;4956550;28;20469;-76
2022/05/17 07:22:59;;;;;;;13.50;9.82;;;;;;;20.76;62.32;100482.91;4945113;28;20055;-75
2022/05/17 07:25:25;;;;;;;13.43;10.07;;;;;;;20.86;62.58;100483.44;4973370;28;20042;-75
2022/05/17 07:27:52;;;;;;;15.52;10.30;;;;;;;20.88;62.36;100477.88;4970622;28;20038;-76
2022/05/17 07:30:20;;;;;;;17.10;10.43;;;;;;;20.89;62.60;100480.41;4994170;28;20047;-75
2022/05/17 07:32:47;;;;;;;17.73;10.32;;;;;;;20.94;62.40;100480.69;4963521;28;20050;-76
2022/05/17 07:35:14;;;;;;;14.60;9.77;;;;;;;20.95;62.08;100476.09;4981066;28;20082;-79
2022/05/17 07:37:41;;;;;;;18.80;10.27;;;;;;;20.97;62.45;100477.59;4969984;28;20069;-76
2022/05/17 07:40:09;;;;;;;18.67;9.75;;;;;;;21.00;62.58;100476.38;4976611;28;20046;-77
2022/05/17 07:42:37;;;;;;;16.92;10.40;;;;;;;20.96;62.75;100478.63;4962517;28;20093;-78
2022/05/17 07:45:04;;;;;;;17.65;10.43;;;;;;;21.00;63.04;100470.97;4951443;28;20050;-77
2022/05/17 07:47:31;;;;;;;11.80;8.48;;;;;;;21.03;62.60;100473.31;4977371;28;20455;-78
2022/05/17 07:49:59;;;;;;;15.60;8.27;;;;;;;20.99;63.12;100472.84;4949597;28;20470;-77
2022/05/17 07:52:27;;;;;;;12.80;8.73;;;;;;;21.00;62.76;100477.22;4977100;28;20058;-76
2022/05/17 07:54:54;;;;;;;16.20;8.02;;;;;;;21.15;62.78;100476.38;4936758;28;20047;-77
2022/05/17 07:57:22;;;;;;;11.70;7.85;;;;;;;21.21;61.91;100472.88;4957991;28;20050;-77
2022/05/17 07:59:50;;;;;;;15.73;7.10;;;;;;;21.26;61.75;100470.47;4962174;28;20050;-79
2022/05/17 08:02:16;;;;;;;14.40;7.55;;;;;;;21.24;61.35;100473.38;4974563;28;20047;-79
2022/05/17 08:04:43;;;;;;;12.93;7.00;;;;;;;21.30;61.65;100474.47;4984173;28;20092;-78
2022/05/17 08:07:10;;;;;;;15.20;6.22;;;;;;;21.27;60.85;100466.75;4976517;28;20045;-78
2022/05/17 08:09:37;;;;;;;12.07;6.28;;;;;;;21.39;60.09;100470.63;4956093;28;20046;-77
2022/05/17 08:12:07;;;;;;;16.30;5.80;;;;;;;21.45;60.04;100466.34;4936938;28;20047;-78
2022/05/17 08:14:35;;;;;;;10.15;5.47;;;;;;;21.51;59.13;100468.28;4948740;28;20051;-77
2022/05/17 08:17:03;;;;;;;14.73;5.95;;;;;;;21.49;58.89;100467.63;4914653;28;20117;-76
2022/05/17 08:19:29;;;;;;;9.38;4.88;;;;;;;21.52;58.50;100472.63;4928030;28;20046;-76
2022/05/17 08:21:57;;;;;;;10.88;5.30;;;;;;;21.52;58.41;100461.84;4959290;28;20178;-77
2022/05/17 08:24:25;;;;;;;12.73;4.72;;;;;;;21.57;57.63;100459.38;4937680;28;20047;-78
2022/05/17 08:27:37;;;;;;;7.93;4.32;;;;;;;21.49;56.90;100454.13;4946177;28;20051;-79
2022/05/17 08:30:11;;;;;;;9.55;4.05;;;;;;;21.65;55.75;100450.31;4862466;28;20046;-80
2022/05/17 08:35:49;;;;;;;6.70;2.45;;;;;;;21.65;54.84;100456.59;4940985;28;20043;-79
2022/05/17 08:38:20;;;;;;;9.15;2.83;;;;;;;21.68;54.15;100460.78;4961377;28;20387;-78
2022/05/17 08:40:58;;;;;;;4.97;3.10;;;;;;;21.70;52.74;100455.97;4976373;28;20398;-77
2022/05/17 08:44:02;;;;;;;7.55;3.03;;;;;;;21.73;53.58;100446.66;4990528;28;20420;-79
2022/05/17 08:47:11;;;;;;;10.48;4.25;;;;;;;21.75;53.14;100458.13;4934011;28;20059;-77
2022/05/17 08:50:07;;;;;;;8.10;3.45;;;;;;;21.83;53.44;100455.28;4907592;28;20046;-79
2022/05/17 08:52:37;;;;;;;8.45;4.05;;;;;;;21.85;53.60;100455.91;4973407;28;20410;-77
2022/05/17 08:55:17;;;;;;;8.05;3.63;;;;;;;21.94;53.10;100443.13;4975179;28;20050;-79
2022/05/17 08:57:47;;;;;;;7.43;3.80;;;;;;;21.93;54.33;100452.25;4946805;28;20078;-79
2022/05/17 09:00:44;;;;;;;5.07;3.20;;;;;;;21.86;52.97;100447.63;4957481;28;20045;-80
2022/05/17 09:03:28;;;;;;;11.35;4.35;;;;;;;22.04;53.74;100454.44;4914411;28;20048;-80
2022/05/17 09:06:02;;;;;;;9.07;4.80;;;;;;;21.97;54.67;100448.13;4927517;28;20049;-79
2022/05/17 09:08:32;;;;;;;8.88;4.80;;;;;;;22.03;54.26;100455.44;4948632;28;20126;-80
2022/05/17 09:11:21;;;;;;;12.35;4.90;;;;;;;21.97;52.65;100453.53;4961764;28;20108;-78
2022/05/17 09:13:52;;;;;;;9.52;4.35;;;;;;;21.96;53.20;100441.88;4978797;28;20500;-78
2022/05/17 09:16:38;;;;;;;9.27;4.03;;;;;;;21.96;54.56;100443.75;4942656;28;20501;-79
2022/05/17 09:19:05;;;;;;;9.73;4.50;;;;;;;22.03;54.17;100444.63;4967182;28;20133;-80
2022/05/17 09:21:38;;;;;;;7.45;4.18;;;;;;;22.01;54.62;100444.84;4979498;28;20051;-79
2022/05/17 09:24:14;;;;;;;6.95;4.13;;;;;;;21.96;53.19;100443.75;4975646;28;20058;-78
2022/05/17 09:26:53;;;;;;;8.50;4.13;;;;;;;22.05;53.20;100435.28;4945361;28;20054;-80
2022/05/17 09:29:22;;;;;;;7.20;4.22;;;;;;;22.09;53.75;100433.88;4928599;28;20054;-81
2022/05/17 09:31:55;;;;;;;9.40;5.00;;;;;;;22.10;53.09;100435.53;4944282;28;20042;-78
2022/05/17 09:34:36;;;;;;;9.10;4.20;;;;;;;22.10;53.99;100432.00;4930145;28;20050;-76
2022/05/17 09:37:23;;;;;;;11.50;4.78;;;;;;;22.10;53.08;100432.00;4916830;28;20126;-76
2022/05/17 09:39:53;;;;;;;8.48;4.47;;;;;;;22.24;53.57;100436.53;4928888;28;20104;-81
2022/05/17 09:42:25;;;;;;;7.78;4.40;;;;;;;22.24;51.46;100439.22;4937816;28;20093;-81
2022/05/17 09:44:54;;;;;;;5.57;3.40;;;;;;;22.25;51.43;100442.75;4971564;28;20058;-81
2022/05/17 09:47:29;;;;;;;6.68;3.67;;;;;;;22.25;49.74;100435.47;4938404;28;20383;-81
2022/05/17 09:52:58;;;;;;;7.07;3.50;;;;;;;22.26;50.14;100434.47;4943730;28;20062;-80
2022/05/17 09:55:28;;;;;;;6.45;2.92;;;;;;;22.31;50.67;100426.59;4891523;28;20454;-80
2022/05/17 09:58:07;;;;;;;5.70;2.63;;;;;;;22.30;49.79;100429.47;4946852;28;20047;-79
2022/05/17 10:00:43;;;;;;;8.80;3.13;;;;;;;22.37;49.73;100422.25;4953198;28;20510;-80
2022/05/17 10:03:12;;;;;;;5.88;2.80;;;;;;;22.46;50.46;100422.91;4968896;28;20126;-81
2022/05/17 10:05:40;;;;;;;6.55;2.78;;;;;;;22.54;50.49;100422.75;4984765;28;20056;-82
2022/05/17 10:08:13;;;;;;;3.63;3.00;;;;;;;22.52;48.54;100420.25;4993678;28;20478;-81
2022/05/17 10:10:43;;;;;;;7.05;2.53;;;;;;;22.55;50.17;100413.59;4973927;28;20073;-81
2022/05/17 10:13:36;;;;;;;6.30;2.90;;;;;;;22.63;48.82;100416.13;4974615;28;20042;-81
2022/05/17 10:16:21;;;;;;;6.28;2.70;;;;;;;22.64;48.33;100419.66;4944125;28;20050;-79
2022/05/17 10:18:58;;;;;;;5.57;3.00;;;;;;;22.58;46.32;100423.19;4958040;28;20457;-80
2022/05/17 10:21:41;;;;;;;8.10;2.92;;;;;;;22.61;45.96;100420.06;4976811;28;20045;-79
2022/05/17 10:24:31;;;;;;;6.93;2.83;;;;;;;22.55;48.29;100424.44;4962276;28;22432;-79
2022/05/17 10:27:03;;;;;;;4.03;3.30;;;;;;;22.61;46.88;100414.66;4946501;28;20046;-77
2022/05/17 10:29:50;;;;;;;3.85;2.75;;;;;;;22.49;45.83;100411.69;4984494;28;20046;-78
2022/05/17 10:32:37;;;;;;;3.72;2.75;;;;;;;22.54;46.98;100414.63;4967847;28;20046;-77
2022/05/17 10:35:27;;;;;;;4.50;3.03;;;;;;;22.63;46.92;100416.13;4959510;28;20058;-78
2022/05/17 10:38:02;;;;;;;3.25;2.28;;;;;;;22.65;47.36;100415.94;4946148;28;20046;-77
2022/05/17 10:40:35;;;;;;;6.57;2.83;;;;;;;22.59;46.91;100412.16;4963781;28;20053;-77
2022/05/17 10:43:03;;;;;;;4.18;3.22;;;;;;;22.71;48.12;100407.84;4946478;28;20053;-84
2022/05/17 10:45:33;;;;;;;6.32;2.65;;;;;;;22.80;47.68;100399.56;4988285;28;20120;-82
2022/05/17 10:48:05;;;;;;;6.18;2.95;;;;;;;22.71;47.86;100407.00;4975668;28;20042;-83
2022/05/17 10:50:51;;;;;;;4.20;2.92;;;;;;;22.79;48.40;100401.41;4977829;28;20054;-85
2022/05/17 10:53:38;;;;;;;5.78;2.30;;;;;;;22.66;47.06;100402.19;4989573;28;20043;-85
2022/05/17 10:56:26;;;;;;;6.18;2.97;;;;;;;22.71;47.30;100396.19;4974503;28;20050;-85
2022/05/17 10:58:55;;;;;;;7.70;3.08;;;;;;;22.85;48.72;100394.38;4934486;28;20054;-84
2022/05/17 11:01:28;;;;;;;4.10;3.00;;;;;;;22.86;48.17;100387.91;4955634;28;20084;-83
2022/05/17 11:04:20;;;;;;;4.20;2.60;;;;;;;22.90;48.55;100390.03;4901723;28;20043;-87
2022/05/17 11:07:06;;;;;;;8.07;2.97;;;;;;;22.92;47.71;100378.97;4971691;28;20409;-83
2022/05/17 11:09:48;;;;;;;3.70;3.28;;;;;;;23.03;47.91;100373.00;4971525;28;20046;-82
2022/05/17 11:12:17;;;;;;;5.03;3.33;;;;;;;23.12;47.48;100376.34;4967463;28;20047;-83
2022/05/17 11:14:52;;;;;;;3.78;3.00;;;;;;;23.16;47.88;100377.63;4967156;28;20054;-83
2022/05/17 11:17:36;;;;;;;4.97;3.00;;;;;;;23.14;46.91;100374.28;4972772;28;20035;-82
2022/05/17 11:20:44;;;;;;;6.25;3.05;;;;;;;23.17;46.48;100368.44;4980582;28;20050;-82
2022/05/17 11:23:34;;;;;;;4.53;2.90;;;;;;;23.28;46.34;100369.72;4953425;28;20055;-79
2022/05/17 11:26:38;;;;;;;7.25;3.22;;;;;;;23.27;45.66;100360.75;4935847;28;20184;-78
2022/05/17 11:29:10;;;;;;;4.97;3.03;;;;;;;23.33;46.52;100361.78;4965941;28;20445;-77
2022/05/17 11:31:52;;;;;;;3.40;2.60;;;;;;;23.33;46.97;100359.94;4974030;28;20046;-78
2022/05/17 11:34:22;;;;;;;4.28;2.90;;;;;;;23.34;47.17;100355.34;5006091;28;20049;-77
2022/05/17 11:36:51;;;;;;;5.68;3.13;;;;;;;23.37;46.87;100352.22;4976983;28;20525;-76
2022/05/17 11:39:39;;;;;;;5.20;2.92;;;;;;;23.36;47.46;100356.81;4956913;28;20050;-79
2022/05/17 11:42:10;;;;;;;5.40;2.80;;;;;;;23.42;47.86;100357.84;4955363;28;20433;-75
2022/05/17 11:44:47;;;;;;;5.18;2.88;;;;;;;23.45;46.64;100352.00;4977541;28;20070;-76
2022/05/17 11:47:30;;;;;;;7.07;3.42;;;;;;;23.47;45.46;100349.94;4953113;28;20578;-77
2022/05/17 11:50:14;;;;;;;9.82;2.88;;;;;;;23.43;45.94;100347.84;4986227;28;20144;-77
2022/05/17 11:52:44;;;;;;;4.00;2.92;;;;;;;23.57;46.94;100346.81;4927958;28;20051;-78